www.cux-wetter.de
Wetterdaten: Dienstag, 26.07.2011
Datum Zeit Temp. A. Feuchte A. Luftdruck Regen Wind Richtung Richtung Sonnenschein Solar Taupunkt Windchill Windben
26.07.2011 00:01 13,6 C 83 % 1008,5 hPa 0,0 l/m 2,5 km/h (1 Bft) S-SO 155 0 min 0 W/m 10,8 C 13,6 C 2,5 km/h (1 Bft)
26.07.2011 00:05 13,6 C 83 % 1008,5 hPa 0,0 l/m 6,6 km/h (2 Bft) SO 135 0 min 0 W/m 10,8 C 13,5 C 6,6 km/h (2 Bft)
26.07.2011 00:10 13,6 C 83 % 1008,5 hPa 0,0 l/m 5,9 km/h (2 Bft) S-SO 150 0 min 0 W/m 10,8 C 13,6 C 5,9 km/h (2 Bft)
26.07.2011 00:15 13,6 C 83 % 1008,5 hPa 0,0 l/m 3,7 km/h (1 Bft) S-SO 155 0 min 0 W/m 10,8 C 13,6 C 3,7 km/h (1 Bft)
26.07.2011 00:20 13,5 C 83 % 1008,5 hPa 0,0 l/m 4,4 km/h (1 Bft) S-SO 155 0 min 0 W/m 10,7 C 13,5 C 4,4 km/h (1 Bft)
26.07.2011 00:26 13,5 C 83 % 1008,5 hPa 0,0 l/m 3,7 km/h (1 Bft) S-SO 155 0 min 0 W/m 10,7 C 13,5 C 3,7 km/h (1 Bft)
26.07.2011 00:31 13,4 C 83 % 1008,5 hPa 0,0 l/m 3,7 km/h (1 Bft) S-SO 155 0 min 0 W/m 10,6 C 13,4 C 3,7 km/h (1 Bft)
26.07.2011 00:35 13,4 C 84 % 1008,5 hPa 0,0 l/m 4,1 km/h (1 Bft) S-SO 155 0 min 0 W/m 10,8 C 13,4 C 4,1 km/h (1 Bft)
26.07.2011 00:40 13,4 C 84 % 1008,5 hPa 0,0 l/m 4,5 km/h (1 Bft) S-SO 155 0 min 0 W/m 10,8 C 13,4 C 4,5 km/h (1 Bft)
26.07.2011 00:45 13,5 C 84 % 1008,5 hPa 0,0 l/m 5,8 km/h (2 Bft) S-SO 155 0 min 0 W/m 10,8 C 13,5 C 5,8 km/h (2 Bft)
26.07.2011 00:50 13,4 C 84 % 1008,5 hPa 0,0 l/m 1,4 km/h (1 Bft) S-SO 155 0 min 0 W/m 10,8 C 13,4 C 1,4 km/h (1 Bft)
26.07.2011 00:55 13,4 C 84 % 1008,5 hPa 0,0 l/m 4,5 km/h (1 Bft) S-SO 155 0 min 0 W/m 10,8 C 13,4 C 4,5 km/h (1 Bft)
26.07.2011 01:00 13,4 C 84 % 1008,5 hPa 0,0 l/m 5,2 km/h (1 Bft) S-SO 155 0 min 0 W/m 10,8 C 13,4 C 5,2 km/h (1 Bft)
26.07.2011 01:05 13,4 C 84 % 1008,5 hPa 0,0 l/m 4,2 km/h (1 Bft) S-SO 150 0 min 0 W/m 10,8 C 13,4 C 4,2 km/h (1 Bft)
26.07.2011 01:10 13,4 C 84 % 1008,5 hPa 0,0 l/m 2,8 km/h (1 Bft) S-SO 150 0 min 0 W/m 10,8 C 13,4 C 2,8 km/h (1 Bft)
26.07.2011 01:15 13,4 C 84 % 1008,5 hPa 0,0 l/m 4,0 km/h (1 Bft) S-SO 150 0 min 0 W/m 10,8 C 13,4 C 4,0 km/h (1 Bft)
26.07.2011 01:20 13,4 C 84 % 1008,5 hPa 0,0 l/m 6,8 km/h (2 Bft) S-SO 155 0 min 0 W/m 10,8 C 13,2 C 6,8 km/h (2 Bft)
26.07.2011 01:25 13,3 C 84 % 1008,5 hPa 0,0 l/m 5,8 km/h (2 Bft) S 170 0 min 0 W/m 10,7 C 13,3 C 5,8 km/h (2 Bft)
26.07.2011 01:30 13,3 C 84 % 1008,5 hPa 0,0 l/m 3,3 km/h (1 Bft) S-SO 150 0 min 0 W/m 10,7 C 13,3 C 3,3 km/h (1 Bft)
26.07.2011 01:36 13,4 C 84 % 1008,5 hPa 0,0 l/m 1,3 km/h (1 Bft) SO 145 0 min 0 W/m 10,8 C 13,4 C 1,3 km/h (1 Bft)
26.07.2011 01:41 13,4 C 85 % 1008,5 hPa 0,0 l/m 4,6 km/h (1 Bft) SO 145 0 min 0 W/m 10,9 C 13,4 C 4,6 km/h (1 Bft)
26.07.2011 01:45 13,4 C 85 % 1008,5 hPa 0,0 l/m 9,8 km/h (2 Bft) S 175 0 min 0 W/m 10,9 C 11,5 C 9,8 km/h (2 Bft)
26.07.2011 01:50 13,5 C 85 % 1008,5 hPa 0,0 l/m 3,9 km/h (1 Bft) S-SO 160 0 min 0 W/m 11,0 C 13,5 C 3,9 km/h (1 Bft)
26.07.2011 01:55 13,6 C 85 % 1008,5 hPa 0,0 l/m 5,3 km/h (1 Bft) S-SO 160 0 min 0 W/m 11,1 C 13,6 C 5,3 km/h (1 Bft)
26.07.2011 02:00 13,6 C 85 % 1008,5 hPa 0,0 l/m 1,7 km/h (1 Bft) S-SO 155 0 min 0 W/m 11,1 C 13,6 C 1,7 km/h (1 Bft)
26.07.2011 02:06 13,6 C 85 % 1008,5 hPa 0,0 l/m 6,3 km/h (2 Bft) SO 145 0 min 0 W/m 11,1 C 13,6 C 6,3 km/h (2 Bft)
26.07.2011 02:11 13,6 C 85 % 1008,5 hPa 0,0 l/m 5,0 km/h (1 Bft) SO 135 0 min 0 W/m 11,1 C 13,6 C 5,0 km/h (1 Bft)
26.07.2011 02:15 13,6 C 85 % 1008,5 hPa 0,0 l/m 9,4 km/h (2 Bft) S-SO 155 0 min 0 W/m 11,1 C 11,9 C 9,4 km/h (2 Bft)
26.07.2011 02:20 13,6 C 85 % 1008,5 hPa 0,0 l/m 6,1 km/h (2 Bft) S-SO 155 0 min 0 W/m 11,1 C 13,6 C 6,1 km/h (2 Bft)
26.07.2011 02:25 13,5 C 85 % 1008,5 hPa 0,0 l/m 7,1 km/h (2 Bft) S-SO 150 0 min 0 W/m 11,0 C 13,1 C 7,1 km/h (2 Bft)
26.07.2011 02:30 13,5 C 86 % 1008,5 hPa 0,0 l/m 9,0 km/h (2 Bft) S-SO 155 0 min 0 W/m 11,2 C 12,0 C 9,0 km/h (2 Bft)
26.07.2011 02:35 13,5 C 86 % 1008,5 hPa 0,0 l/m 7,9 km/h (2 Bft) S-SO 155 0 min 0 W/m 11,2 C 12,6 C 7,9 km/h (2 Bft)
26.07.2011 02:40 13,5 C 86 % 1008,5 hPa 0,0 l/m 4,8 km/h (1 Bft) SO 135 0 min 0 W/m 11,2 C 13,5 C 4,8 km/h (1 Bft)
26.07.2011 02:46 13,6 C 86 % 1008,5 hPa 0,0 l/m 6,8 km/h (2 Bft) S-SO 155 0 min 0 W/m 11,3 C 13,4 C 6,8 km/h (2 Bft)
26.07.2011 02:51 13,6 C 86 % 1008,5 hPa 0,0 l/m 4,4 km/h (1 Bft) S-SO 155 0 min 0 W/m 11,3 C 13,6 C 4,4 km/h (1 Bft)
26.07.2011 02:55 13,6 C 86 % 1008,5 hPa 0,0 l/m 4,3 km/h (1 Bft) S-SO 150 0 min 0 W/m 11,3 C 13,6 C 4,3 km/h (1 Bft)
26.07.2011 03:00 13,6 C 86 % 1008,5 hPa 0,0 l/m 3,6 km/h (1 Bft) S-SO 155 0 min 0 W/m 11,3 C 13,6 C 3,6 km/h (1 Bft)
26.07.2011 03:05 13,7 C 86 % 1008,5 hPa 0,0 l/m 2,7 km/h (1 Bft) S-SO 155 0 min 0 W/m 11,4 C 13,7 C 2,7 km/h (1 Bft)
26.07.2011 03:11 13,7 C 86 % 1008,5 hPa 0,0 l/m 0,9 km/h (0 Bft) SO 135 0 min 0 W/m 11,4 C 13,7 C 0,9 km/h (0 Bft)
26.07.2011 03:16 13,7 C 86 % 1008,5 hPa 0,0 l/m 3,3 km/h (1 Bft) SO 130 0 min 0 W/m 11,4 C 13,7 C 3,3 km/h (1 Bft)
26.07.2011 03:20 13,7 C 87 % 1008,5 hPa 0,0 l/m 4,2 km/h (1 Bft) SO 130 0 min 0 W/m 11,6 C 13,7 C 4,2 km/h (1 Bft)
26.07.2011 03:25 13,7 C 86 % 1008,5 hPa 0,0 l/m 3,5 km/h (1 Bft) SO 130 0 min 0 W/m 11,4 C 13,7 C 3,5 km/h (1 Bft)
26.07.2011 03:30 13,7 C 87 % 1008,5 hPa 0,0 l/m 4,3 km/h (1 Bft) SO 130 0 min 0 W/m 11,6 C 13,7 C 4,3 km/h (1 Bft)
26.07.2011 03:35 13,6 C 87 % 1008,5 hPa 0,0 l/m 3,3 km/h (1 Bft) SO 125 0 min 0 W/m 11,5 C 13,6 C 3,3 km/h (1 Bft)
26.07.2011 03:40 13,6 C 87 % 1008,5 hPa 0,0 l/m 3,6 km/h (1 Bft) SO 125 0 min 0 W/m 11,5 C 13,6 C 3,6 km/h (1 Bft)
26.07.2011 03:45 13,6 C 87 % 1008,5 hPa 0,0 l/m 5,8 km/h (2 Bft) S-SO 155 0 min 0 W/m 11,5 C 13,6 C 5,8 km/h (2 Bft)
26.07.2011 03:51 13,6 C 87 % 1008,5 hPa 0,0 l/m 2,0 km/h (1 Bft) SO 140 0 min 0 W/m 11,5 C 13,6 C 2,0 km/h (1 Bft)
26.07.2011 03:56 13,5 C 87 % 1008,5 hPa 0,0 l/m 3,5 km/h (1 Bft) SO 140 0 min 0 W/m 11,4 C 13,5 C 3,5 km/h (1 Bft)
26.07.2011 04:00 13,5 C 86 % 1008,5 hPa 0,0 l/m 0,3 km/h (0 Bft) SO 140 0 min 0 W/m 11,2 C 13,5 C 0,3 km/h (0 Bft)
26.07.2011 04:05 13,4 C 86 % 1008,5 hPa 0,0 l/m 0,3 km/h (0 Bft) SO 140 0 min 0 W/m 11,1 C 13,4 C 0,3 km/h (0 Bft)
26.07.2011 04:10 13,3 C 86 % 1008,5 hPa 0,0 l/m 0,9 km/h (0 Bft) SO 140 0 min 0 W/m 11,0 C 13,3 C 0,9 km/h (0 Bft)
26.07.2011 04:16 13,2 C 86 % 1008,5 hPa 0,0 l/m 0,6 km/h (0 Bft) SO 140 0 min 0 W/m 10,9 C 13,2 C 0,6 km/h (0 Bft)
26.07.2011 04:21 13,2 C 86 % 1008,5 hPa 0,0 l/m 5,2 km/h (1 Bft) SO 140 0 min 0 W/m 10,9 C 13,2 C 5,2 km/h (1 Bft)
26.07.2011 04:25 13,2 C 86 % 1008,5 hPa 0,0 l/m 0,7 km/h (0 Bft) SO 140 0 min 0 W/m 10,9 C 13,2 C 0,7 km/h (0 Bft)
26.07.2011 04:30 13,1 C 86 % 1008,5 hPa 0,0 l/m 2,8 km/h (1 Bft) SO 140 0 min 0 W/m 10,8 C 13,1 C 2,8 km/h (1 Bft)
26.07.2011 04:35 13,1 C 86 % 1008,5 hPa 0,0 l/m 1,1 km/h (1 Bft) O-SO 120 0 min 0 W/m 10,8 C 13,1 C 1,1 km/h (1 Bft)
26.07.2011 04:40 13,0 C 86 % 1008,5 hPa 0,0 l/m 0,3 km/h (0 Bft) O-SO 110 0 min 0 W/m 10,7 C 13,0 C 0,3 km/h (0 Bft)
26.07.2011 04:45 13,0 C 86 % 1008,5 hPa 0,0 l/m 0,0 km/h (0 Bft) O-SO 110 0 min 0 W/m 10,7 C 13,0 C 0,0 km/h (0 Bft)
26.07.2011 04:50 13,0 C 86 % 1008,5 hPa 0,0 l/m 0,2 km/h (0 Bft) O-SO 110 0 min 0 W/m 10,7 C 13,0 C 0,2 km/h (0 Bft)
26.07.2011 04:56 12,9 C 86 % 1008,5 hPa 0,0 l/m 0,3 km/h (0 Bft) O-SO 110 0 min 0 W/m 10,6 C 12,9 C 0,3 km/h (0 Bft)
26.07.2011 05:01 12,9 C 86 % 1008,5 hPa 0,0 l/m 0,4 km/h (0 Bft) O-SO 110 0 min 0 W/m 10,6 C 12,9 C 0,4 km/h (0 Bft)
26.07.2011 05:05 13,0 C 87 % 1008,5 hPa 0,0 l/m 0,3 km/h (0 Bft) O-SO 110 0 min 0 W/m 10,9 C 13,0 C 0,3 km/h (0 Bft)
26.07.2011 05:10 13,0 C 87 % 1008,5 hPa 0,0 l/m 12,0 km/h (2 Bft) SO 125 0 min 0 W/m 10,9 C 10,0 C 12,0 km/h (2 Bft)
26.07.2011 05:15 13,0 C 87 % 1008,5 hPa 0,0 l/m 1,2 km/h (1 Bft) SO 145 0 min 0 W/m 10,9 C 13,0 C 1,2 km/h (1 Bft)
26.07.2011 05:21 13,0 C 87 % 1008,5 hPa 0,0 l/m 1,2 km/h (1 Bft) SO 145 0 min 0 W/m 10,9 C 13,0 C 1,2 km/h (1 Bft)
26.07.2011 05:26 13,1 C 87 % 1008,5 hPa 0,0 l/m 0,9 km/h (0 Bft) SO 140 0 min 0 W/m 11,0 C 13,1 C 0,9 km/h (0 Bft)
26.07.2011 05:30 13,1 C 87 % 1008,5 hPa 0,0 l/m 4,3 km/h (1 Bft) SO 140 0 min 0 W/m 11,0 C 13,1 C 4,3 km/h (1 Bft)
26.07.2011 05:35 13,1 C 87 % 1008,5 hPa 0,0 l/m 5,5 km/h (2 Bft) SO 140 0 min 0 W/m 11,0 C 13,1 C 5,5 km/h (2 Bft)
26.07.2011 05:40 13,2 C 87 % 1008,5 hPa 0,0 l/m 2,8 km/h (1 Bft) SO 140 0 min 0 W/m 11,1 C 13,2 C 2,8 km/h (1 Bft)
26.07.2011 05:45 13,0 C 87 % 1008,5 hPa 0,0 l/m 0,9 km/h (0 Bft) SO 140 0 min 0 W/m 10,9 C 13,0 C 0,9 km/h (0 Bft)
26.07.2011 05:50 13,1 C 87 % 1008,5 hPa 0,0 l/m 4,5 km/h (1 Bft) SO 140 0 min 0 W/m 11,0 C 13,1 C 4,5 km/h (1 Bft)
26.07.2011 05:55 13,0 C 87 % 1008,5 hPa 0,0 l/m 0,7 km/h (0 Bft) SO 140 0 min 0 W/m 10,9 C 13,0 C 0,7 km/h (0 Bft)
26.07.2011 06:01 13,0 C 87 % 1008,5 hPa 0,0 l/m 0,0 km/h (0 Bft) SO 140 0 min 0 W/m 10,9 C 13,0 C 0,0 km/h (0 Bft)
26.07.2011 06:05 12,9 C 87 % 1008,5 hPa 0,0 l/m 5,2 km/h (1 Bft) SO 140 0 min 0 W/m 10,8 C 12,9 C 5,2 km/h (1 Bft)
26.07.2011 06:10 12,9 C 87 % 1008,5 hPa 0,0 l/m 0,0 km/h (0 Bft) SO 140 0 min 0 W/m 10,8 C 12,9 C 0,0 km/h (0 Bft)
26.07.2011 06:15 12,9 C 88 % 1008,5 hPa 0,0 l/m 3,0 km/h (1 Bft) SO 140 0 min 0 W/m 11,0 C 12,9 C 3,0 km/h (1 Bft)
26.07.2011 06:20 12,9 C 88 % 1008,5 hPa 0,0 l/m 0,6 km/h (0 Bft) SO 140 0 min 0 W/m 11,0 C 12,9 C 0,6 km/h (0 Bft)
26.07.2011 06:26 12,9 C 88 % 1008,5 hPa 0,0 l/m 3,3 km/h (1 Bft) SO 140 0 min 0 W/m 11,0 C 12,9 C 3,3 km/h (1 Bft)
26.07.2011 06:31 12,9 C 88 % 1008,5 hPa 0,0 l/m 5,3 km/h (1 Bft) O-SO 115 0 min 0 W/m 11,0 C 12,9 C 5,3 km/h (1 Bft)
26.07.2011 06:35 12,9 C 88 % 1008,5 hPa 0,0 l/m 3,3 km/h (1 Bft) O-SO 120 0 min 0 W/m 11,0 C 12,9 C 3,3 km/h (1 Bft)
26.07.2011 06:40 12,9 C 88 % 1008,5 hPa 0,0 l/m 1,2 km/h (1 Bft) SO 130 0 min 0 W/m 11,0 C 12,9 C 1,2 km/h (1 Bft)
26.07.2011 06:45 13,0 C 88 % 1008,5 hPa 0,0 l/m 3,6 km/h (1 Bft) O-SO 105 0 min 0 W/m 11,1 C 13,0 C 3,6 km/h (1 Bft)
26.07.2011 06:50 13,1 C 89 % 1008,5 hPa 0,0 l/m 6,9 km/h (2 Bft) SO 125 0 min 0 W/m 11,3 C 12,8 C 6,9 km/h (2 Bft)
26.07.2011 06:55 13,2 C 89 % 1008,5 hPa 0,0 l/m 5,4 km/h (2 Bft) S-SO 150 0 min 0 W/m 11,4 C 13,2 C 5,4 km/h (2 Bft)
26.07.2011 07:00 13,2 C 89 % 1008,5 hPa 0,0 l/m 6,0 km/h (2 Bft) S-SO 160 0 min 0 W/m 11,4 C 13,2 C 6,0 km/h (2 Bft)
26.07.2011 07:05 13,3 C 89 % 1008,5 hPa 0,0 l/m 6,0 km/h (2 Bft) S-SO 160 0 min 0 W/m 11,5 C 13,3 C 6,0 km/h (2 Bft)
26.07.2011 07:10 13,5 C 89 % 1008,5 hPa 0,0 l/m 5,1 km/h (1 Bft) SO 140 0 min 0 W/m 11,7 C 13,5 C 5,1 km/h (1 Bft)
26.07.2011 07:15 13,5 C 89 % 1008,5 hPa 0,0 l/m 9,6 km/h (2 Bft) SO 130 0 min 0 W/m 11,7 C 11,7 C 9,6 km/h (2 Bft)
26.07.2011 07:20 13,6 C 89 % 1008,5 hPa 0,0 l/m 6,6 km/h (2 Bft) S 170 0 min 0 W/m 11,8 C 13,5 C 6,6 km/h (2 Bft)
26.07.2011 07:25 13,7 C 89 % 1008,5 hPa 0,0 l/m 9,3 km/h (2 Bft) SO 140 0 min 0 W/m 11,9 C 12,0 C 9,3 km/h (2 Bft)
26.07.2011 07:31 13,8 C 89 % 1009,5 hPa 0,0 l/m 6,9 km/h (2 Bft) SO 140 0 min 0 W/m 12,0 C 13,5 C 6,9 km/h (2 Bft)
26.07.2011 07:35 14,0 C 89 % 1009,5 hPa 0,0 l/m 10,5 km/h (2 Bft) SO 135 0 min 0 W/m 12,2 C 11,8 C 10,5 km/h (2 Bft)
26.07.2011 07:40 14,1 C 89 % 1009,5 hPa 0,0 l/m 4,0 km/h (1 Bft) S-SO 150 0 min 0 W/m 12,3 C 14,1 C 4,0 km/h (1 Bft)
26.07.2011 07:45 14,1 C 89 % 1009,5 hPa 0,0 l/m 4,6 km/h (1 Bft) SO 140 0 min 0 W/m 12,3 C 14,1 C 4,6 km/h (1 Bft)
26.07.2011 07:50 14,2 C 89 % 1009,5 hPa 0,0 l/m 7,5 km/h (2 Bft) S-SO 150 0 min 0 W/m 12,4 C 13,5 C 7,5 km/h (2 Bft)
26.07.2011 07:55 14,3 C 89 % 1009,5 hPa 0,0 l/m 7,8 km/h (2 Bft) O-SO 120 0 min 0 W/m 12,5 C 13,5 C 7,8 km/h (2 Bft)
26.07.2011 08:00 14,4 C 88 % 1009,5 hPa 0,0 l/m 6,2 km/h (2 Bft) SO 130 0 min 0 W/m 12,4 C 14,4 C 6,2 km/h (2 Bft)
26.07.2011 08:05 14,4 C 89 % 1009,5 hPa 0,0 l/m 8,8 km/h (2 Bft) SO 135 0 min 0 W/m 12,6 C 13,0 C 8,8 km/h (2 Bft)
26.07.2011 08:10 14,5 C 89 % 1009,5 hPa 0,0 l/m 8,3 km/h (2 Bft) O-SO 120 0 min 0 W/m 12,7 C 13,4 C 8,3 km/h (2 Bft)
26.07.2011 08:15 14,6 C 89 % 1009,5 hPa 0,0 l/m 5,9 km/h (2 Bft) S-SO 150 0 min 0 W/m 12,8 C 14,6 C 5,9 km/h (2 Bft)
26.07.2011 08:20 14,8 C 89 % 1009,5 hPa 0,0 l/m 6,7 km/h (2 Bft) O-SO 120 0 min 0 W/m 13,0 C 14,6 C 6,7 km/h (2 Bft)
26.07.2011 08:26 14,9 C 89 % 1009,5 hPa 0,0 l/m 1,9 km/h (1 Bft) SO 125 0 min 0 W/m 13,1 C 14,9 C 1,9 km/h (1 Bft)
26.07.2011 08:31 15,0 C 89 % 1009,5 hPa 0,0 l/m 6,1 km/h (2 Bft) SO 145 0 min 0 W/m 13,2 C 15,0 C 6,1 km/h (2 Bft)
26.07.2011 08:35 15,0 C 89 % 1009,5 hPa 0,0 l/m 9,2 km/h (2 Bft) SO 130 0 min 0 W/m 13,2 C 13,5 C 9,2 km/h (2 Bft)
26.07.2011 08:40 15,0 C 88 % 1009,5 hPa 0,0 l/m 4,6 km/h (1 Bft) O 100 0 min 0 W/m 13,0 C 15,0 C 4,6 km/h (1 Bft)
26.07.2011 08:45 15,0 C 88 % 1009,5 hPa 0,0 l/m 8,7 km/h (2 Bft) O-SO 105 0 min 0 W/m 13,0 C 13,7 C 8,7 km/h (2 Bft)
26.07.2011 08:50 15,0 C 88 % 1009,5 hPa 0,0 l/m 6,5 km/h (2 Bft) SO 125 0 min 0 W/m 13,0 C 15,0 C 6,5 km/h (2 Bft)
26.07.2011 08:55 15,0 C 88 % 1009,5 hPa 0,0 l/m 7,8 km/h (2 Bft) O-SO 115 0 min 0 W/m 13,0 C 14,2 C 7,8 km/h (2 Bft)
26.07.2011 09:01 15,0 C 88 % 1009,5 hPa 0,0 l/m 8,9 km/h (2 Bft) S-SO 150 0 min 0 W/m 13,0 C 13,6 C 8,9 km/h (2 Bft)
26.07.2011 09:05 15,0 C 88 % 1009,5 hPa 0,0 l/m 7,0 km/h (2 Bft) SO 140 0 min 0 W/m 13,0 C 14,7 C 7,0 km/h (2 Bft)
26.07.2011 09:10 15,0 C 87 % 1009,5 hPa 0,0 l/m 10,6 km/h (2 Bft) SO 140 0 min 0 W/m 12,9 C 12,9 C 10,6 km/h (2 Bft)
26.07.2011 09:15 15,1 C 87 % 1009,5 hPa 0,0 l/m 10,3 km/h (2 Bft) S-SO 150 0 min 0 W/m 13,0 C 13,1 C 10,3 km/h (2 Bft)
26.07.2011 09:21 15,2 C 87 % 1009,5 hPa 0,0 l/m 11,0 km/h (2 Bft) S-SO 150 0 min 0 W/m 13,0 C 12,9 C 11,0 km/h (2 Bft)
26.07.2011 09:26 15,1 C 87 % 1009,5 hPa 0,0 l/m 18,1 km/h (3 Bft) SO 140 0 min 0 W/m 13,0 C 10,4 C 18,1 km/h (3 Bft)
26.07.2011 09:30 15,3 C 86 % 1009,5 hPa 0,0 l/m 9,7 km/h (2 Bft) S-SO 155 0 min 0 W/m 13,0 C 13,6 C 9,7 km/h (2 Bft)
26.07.2011 09:35 15,3 C 85 % 1009,5 hPa 0,0 l/m 13,6 km/h (3 Bft) S-SO 155 0 min 0 W/m 12,8 C 12,0 C 13,6 km/h (3 Bft)
26.07.2011 09:40 15,4 C 85 % 1009,5 hPa 0,0 l/m 13,5 km/h (3 Bft) S-SO 155 0 min 0 W/m 12,9 C 12,2 C 13,5 km/h (3 Bft)
26.07.2011 09:45 15,5 C 85 % 1010,5 hPa 0,0 l/m 12,9 km/h (3 Bft) S-SO 160 0 min 0 W/m 13,0 C 12,5 C 12,9 km/h (3 Bft)
26.07.2011 09:50 15,6 C 85 % 1009,5 hPa 0,0 l/m 9,8 km/h (2 Bft) S-SO 155 0 min 0 W/m 13,1 C 13,9 C 9,8 km/h (2 Bft)
26.07.2011 09:56 15,8 C 84 % 1009,5 hPa 0,0 l/m 8,9 km/h (2 Bft) S-SO 155 0 min 0 W/m 13,1 C 14,5 C 8,9 km/h (2 Bft)
26.07.2011 10:01 15,8 C 84 % 1010,5 hPa 0,0 l/m 5,2 km/h (1 Bft) S-SO 150 0 min 0 W/m 13,1 C 15,8 C 5,2 km/h (1 Bft)
26.07.2011 10:05 15,9 C 83 % 1010,5 hPa 0,0 l/m 11,2 km/h (2 Bft) S-SO 165 0 min 0 W/m 13,0 C 13,6 C 11,2 km/h (2 Bft)
26.07.2011 10:10 16,0 C 83 % 1010,5 hPa 0,0 l/m 11,6 km/h (2 Bft) S-SO 160 0 min 0 W/m 13,1 C 13,6 C 11,6 km/h (2 Bft)
26.07.2011 10:15 16,1 C 83 % 1010,5 hPa 0,0 l/m 9,8 km/h (2 Bft) SO 145 0 min 0 W/m 13,2 C 14,4 C 9,8 km/h (2 Bft)
26.07.2011 10:21 16,2 C 82 % 1010,5 hPa 0,0 l/m 12,4 km/h (2 Bft) S 170 0 min 0 W/m 13,1 C 13,5 C 12,4 km/h (2 Bft)
26.07.2011 10:25 16,4 C 81 % 1010,5 hPa 0,0 l/m 9,0 km/h (2 Bft) S 170 0 min 0 W/m 13,1 C 15,1 C 9,0 km/h (2 Bft)
26.07.2011 10:30 16,4 C 81 % 1010,5 hPa 0,0 l/m 12,5 km/h (2 Bft) S-SO 160 0 min 0 W/m 13,1 C 13,7 C 12,5 km/h (2 Bft)
26.07.2011 10:35 16,6 C 80 % 1010,5 hPa 0,0 l/m 10,9 km/h (2 Bft) S-SO 150 0 min 0 W/m 13,1 C 14,5 C 10,9 km/h (2 Bft)
26.07.2011 10:40 16,8 C 80 % 1010,5 hPa 0,0 l/m 11,3 km/h (2 Bft) S-SO 150 0 min 0 W/m 13,3 C 14,6 C 11,3 km/h (2 Bft)
26.07.2011 10:45 16,8 C 80 % 1010,5 hPa 0,0 l/m 10,7 km/h (2 Bft) S-SO 160 0 min 0 W/m 13,3 C 14,8 C 10,7 km/h (2 Bft)
26.07.2011 10:50 17,0 C 79 % 1010,5 hPa 0,0 l/m 13,8 km/h (3 Bft) S 180 0 min 0 W/m 13,3 C 14,0 C 13,8 km/h (3 Bft)
26.07.2011 10:56 17,2 C 80 % 1010,5 hPa 0,0 l/m 13,9 km/h (3 Bft) S-SO 150 0 min 0 W/m 13,7 C 14,2 C 13,9 km/h (3 Bft)
26.07.2011 11:00 17,2 C 78 % 1010,5 hPa 0,0 l/m 16,0 km/h (3 Bft) S-SO 150 0 min 0 W/m 13,3 C 13,6 C 16,0 km/h (3 Bft)
26.07.2011 11:05 17,3 C 78 % 1010,5 hPa 0,0 l/m 16,0 km/h (3 Bft) S-SO 150 0 min 0 W/m 13,4 C 13,7 C 16,0 km/h (3 Bft)
26.07.2011 11:10 17,8 C 79 % 1010,5 hPa 0,0 l/m 10,0 km/h (2 Bft) SO 140 0 min 0 W/m 14,1 C 16,2 C 10,0 km/h (2 Bft)
26.07.2011 11:16 18,4 C 78 % 1010,5 hPa 0,0 l/m 11,3 km/h (2 Bft) S-SO 150 0 min 0 W/m 14,5 C 16,4 C 11,3 km/h (2 Bft)
26.07.2011 11:21 18,7 C 76 % 1010,5 hPa 0,0 l/m 14,8 km/h (3 Bft) S-SO 160 0 min 0 W/m 14,4 C 15,7 C 14,8 km/h (3 Bft)
26.07.2011 11:25 19,3 C 75 % 1010,5 hPa 0,0 l/m 12,9 km/h (3 Bft) SO 135 0 min 0 W/m 14,8 C 17,0 C 12,9 km/h (3 Bft)
26.07.2011 11:30 19,6 C 73 % 1010,5 hPa 0,0 l/m 12,5 km/h (2 Bft) S-SO 150 0 min 0 W/m 14,6 C 17,4 C 12,5 km/h (2 Bft)
26.07.2011 11:35 19,7 C 73 % 1010,5 hPa 0,0 l/m 18,0 km/h (3 Bft) SO 140 0 min 0 W/m 14,7 C 16,2 C 18,0 km/h (3 Bft)
26.07.2011 11:40 20,1 C 71 % 1010,5 hPa 0,0 l/m 16,4 km/h (3 Bft) S-SO 165 0 min 0 W/m 14,7 C 17,1 C 16,4 km/h (3 Bft)
26.07.2011 11:45 20,4 C 71 % 1010,5 hPa 0,0 l/m 12,4 km/h (2 Bft) SO 140 0 min 0 W/m 15,0 C 18,4 C 12,4 km/h (2 Bft)
26.07.2011 11:51 20,6 C 72 % 1010,5 hPa 0,0 l/m 13,9 km/h (3 Bft) SO 145 0 min 0 W/m 15,4 C 18,2 C 13,9 km/h (3 Bft)
26.07.2011 11:56 20,8 C 70 % 1010,5 hPa 0,0 l/m 14,8 km/h (3 Bft) SO 135 0 min 0 W/m 15,1 C 18,3 C 14,8 km/h (3 Bft)
26.07.2011 12:00 21,0 C 70 % 1010,5 hPa 0,0 l/m 12,6 km/h (3 Bft) SO 140 0 min 0 W/m 15,3 C 19,0 C 12,6 km/h (3 Bft)
26.07.2011 12:05 21,1 C 70 % 1010,5 hPa 0,0 l/m 11,8 km/h (2 Bft) O-SO 110 0 min 0 W/m 15,4 C 19,3 C 11,8 km/h (2 Bft)
26.07.2011 12:11 21,2 C 70 % 1010,5 hPa 0,0 l/m 10,9 km/h (2 Bft) O-SO 105 0 min 0 W/m 15,5 C 19,7 C 10,9 km/h (2 Bft)
26.07.2011 12:16 21,2 C 68 % 1010,5 hPa 0,0 l/m 17,9 km/h (3 Bft) O-SO 110 0 min 0 W/m 15,1 C 18,1 C 17,9 km/h (3 Bft)
26.07.2011 12:20 21,4 C 67 % 1010,5 hPa 0,0 l/m 14,8 km/h (3 Bft) SO 135 0 min 0 W/m 15,0 C 19,0 C 14,8 km/h (3 Bft)
26.07.2011 12:25 21,4 C 68 % 1010,5 hPa 0,0 l/m 14,8 km/h (3 Bft) SO 135 0 min 0 W/m 15,2 C 19,0 C 14,8 km/h (3 Bft)
26.07.2011 12:30 21,6 C 68 % 1010,5 hPa 0,0 l/m 11,3 km/h (2 Bft) SO 125 0 min 0 W/m 15,4 C 20,1 C 11,3 km/h (2 Bft)
26.07.2011 12:35 21,6 C 66 % 1010,5 hPa 0,0 l/m 17,1 km/h (3 Bft) SO 145 0 min 0 W/m 15,0 C 18,8 C 17,1 km/h (3 Bft)
26.07.2011 12:40 21,6 C 66 % 1010,5 hPa 0,0 l/m 16,9 km/h (3 Bft) SO 135 0 min 0 W/m 15,0 C 18,8 C 16,9 km/h (3 Bft)
26.07.2011 12:46 21,6 C 66 % 1010,5 hPa 0,0 l/m 14,8 km/h (3 Bft) SO 125 0 min 0 W/m 15,0 C 19,2 C 14,8 km/h (3 Bft)
26.07.2011 12:51 21,6 C 66 % 1010,5 hPa 0,0 l/m 11,7 km/h (2 Bft) O-NO 70 0 min 0 W/m 15,0 C 19,9 C 11,7 km/h (2 Bft)
26.07.2011 12:55 21,5 C 67 % 1010,5 hPa 0,0 l/m 16,2 km/h (3 Bft) O-SO 115 0 min 0 W/m 15,1 C 18,8 C 16,2 km/h (3 Bft)
26.07.2011 13:00 21,6 C 67 % 1010,5 hPa 0,0 l/m 10,6 km/h (2 Bft) SO 125 0 min 0 W/m 15,2 C 20,2 C 10,6 km/h (2 Bft)
26.07.2011 13:05 21,6 C 67 % 1010,5 hPa 0,0 l/m 8,6 km/h (2 Bft) O-SO 105 0 min 0 W/m 15,2 C 20,8 C 8,6 km/h (2 Bft)
26.07.2011 13:11 21,8 C 67 % 1010,5 hPa 0,0 l/m 12,1 km/h (2 Bft) O 95 0 min 0 W/m 15,4 C 20,1 C 12,1 km/h (2 Bft)
26.07.2011 13:15 21,9 C 68 % 1010,5 hPa 0,0 l/m 9,0 km/h (2 Bft) O 95 0 min 0 W/m 15,7 C 21,0 C 9,0 km/h (2 Bft)
26.07.2011 13:20 21,7 C 66 % 1010,5 hPa 0,0 l/m 10,5 km/h (2 Bft) O-SO 110 0 min 0 W/m 15,1 C 20,4 C 10,5 km/h (2 Bft)
26.07.2011 13:25 21,6 C 67 % 1010,5 hPa 0,0 l/m 14,0 km/h (3 Bft) SO 125 0 min 0 W/m 15,2 C 19,4 C 14,0 km/h (3 Bft)
26.07.2011 13:30 21,6 C 66 % 1010,5 hPa 0,0 l/m 20,5 km/h (4 Bft) O 90 0 min 0 W/m 15,0 C 18,2 C 20,5 km/h (4 Bft)
26.07.2011 13:35 21,5 C 67 % 1010,5 hPa 0,0 l/m 12,8 km/h (3 Bft) O-SO 105 0 min 0 W/m 15,1 C 19,6 C 12,8 km/h (3 Bft)
26.07.2011 13:41 21,4 C 66 % 1010,5 hPa 0,0 l/m 12,0 km/h (2 Bft) SO 130 0 min 0 W/m 14,8 C 19,6 C 12,0 km/h (2 Bft)
26.07.2011 13:46 21,3 C 66 % 1010,5 hPa 0,0 l/m 13,6 km/h (3 Bft) SO 135 0 min 0 W/m 14,7 C 19,1 C 13,6 km/h (3 Bft)
26.07.2011 13:50 21,2 C 67 % 1010,5 hPa 0,0 l/m 10,4 km/h (2 Bft) O 100 0 min 0 W/m 14,8 C 19,8 C 10,4 km/h (2 Bft)
26.07.2011 13:55 21,3 C 67 % 1011,5 hPa 0,0 l/m 13,5 km/h (3 Bft) SO 145 0 min 0 W/m 14,9 C 19,2 C 13,5 km/h (3 Bft)
26.07.2011 14:00 21,1 C 67 % 1011,5 hPa 0,0 l/m 14,5 km/h (3 Bft) SO 140 0 min 0 W/m 14,7 C 18,7 C 14,5 km/h (3 Bft)
26.07.2011 14:06 21,1 C 67 % 1011,5 hPa 0,0 l/m 13,1 km/h (3 Bft) SO 125 0 min 0 W/m 14,7 C 19,0 C 13,1 km/h (3 Bft)
26.07.2011 14:10 21,0 C 68 % 1011,5 hPa 0,0 l/m 8,8 km/h (2 Bft) O-SO 105 0 min 0 W/m 14,9 C 20,1 C 8,8 km/h (2 Bft)
26.07.2011 14:15 21,3 C 69 % 1011,5 hPa 0,0 l/m 13,5 km/h (3 Bft) O-SO 110 0 min 0 W/m 15,4 C 19,2 C 13,5 km/h (3 Bft)
26.07.2011 14:20 21,4 C 68 % 1011,5 hPa 0,0 l/m 12,4 km/h (2 Bft) SO 125 0 min 0 W/m 15,2 C 19,5 C 12,4 km/h (2 Bft)
26.07.2011 14:25 21,3 C 67 % 1011,5 hPa 0,0 l/m 10,8 km/h (2 Bft) SO 135 0 min 0 W/m 14,9 C 19,8 C 10,8 km/h (2 Bft)
26.07.2011 14:30 21,2 C 67 % 1011,5 hPa 0,0 l/m 11,9 km/h (2 Bft) SO 140 0 min 0 W/m 14,8 C 19,4 C 11,9 km/h (2 Bft)
26.07.2011 14:36 21,1 C 67 % 1011,5 hPa 0,0 l/m 13,6 km/h (3 Bft) SO 125 0 min 0 W/m 14,7 C 18,9 C 13,6 km/h (3 Bft)
26.07.2011 14:40 21,0 C 68 % 1011,5 hPa 0,0 l/m 5,7 km/h (2 Bft) O-SO 105 0 min 0 W/m 14,9 C 21,0 C 5,7 km/h (2 Bft)
26.07.2011 14:45 21,0 C 69 % 1011,5 hPa 0,0 l/m 13,3 km/h (3 Bft) O-SO 115 0 min 0 W/m 15,1 C 18,9 C 13,3 km/h (3 Bft)
26.07.2011 14:50 20,9 C 68 % 1011,5 hPa 0,0 l/m 14,3 km/h (3 Bft) O-SO 120 0 min 0 W/m 14,8 C 18,5 C 14,3 km/h (3 Bft)
26.07.2011 14:55 21,0 C 68 % 1011,5 hPa 0,0 l/m 12,9 km/h (3 Bft) O-SO 105 0 min 0 W/m 14,9 C 19,0 C 12,9 km/h (3 Bft)
26.07.2011 15:00 21,1 C 68 % 1011,5 hPa 0,0 l/m 10,3 km/h (2 Bft) SO 130 0 min 0 W/m 15,0 C 19,8 C 10,3 km/h (2 Bft)
26.07.2011 15:05 20,9 C 69 % 1011,5 hPa 0,0 l/m 12,7 km/h (3 Bft) O 100 0 min 0 W/m 15,0 C 18,9 C 12,7 km/h (3 Bft)
26.07.2011 15:10 20,8 C 69 % 1011,5 hPa 0,0 l/m 8,9 km/h (2 Bft) O 95 0 min 0 W/m 14,9 C 19,9 C 8,9 km/h (2 Bft)
26.07.2011 15:15 20,9 C 69 % 1011,5 hPa 0,0 l/m 11,8 km/h (2 Bft) SO 135 0 min 0 W/m 15,0 C 19,1 C 11,8 km/h (2 Bft)
26.07.2011 15:21 21,0 C 69 % 1011,5 hPa 0,0 l/m 13,8 km/h (3 Bft) O-SO 105 0 min 0 W/m 15,1 C 18,7 C 13,8 km/h (3 Bft)
26.07.2011 15:26 20,9 C 70 % 1011,5 hPa 0,0 l/m 6,3 km/h (2 Bft) SO 135 0 min 0 W/m 15,2 C 20,9 C 6,3 km/h (2 Bft)
26.07.2011 15:30 20,6 C 69 % 1011,5 hPa 0,0 l/m 10,2 km/h (2 Bft) SO 135 0 min 0 W/m 14,7 C 19,2 C 10,2 km/h (2 Bft)
26.07.2011 15:35 20,4 C 70 % 1011,5 hPa 0,0 l/m 7,8 km/h (2 Bft) O-SO 115 0 min 0 W/m 14,7 C 19,8 C 7,8 km/h (2 Bft)
26.07.2011 15:40 20,2 C 71 % 1011,5 hPa 0,0 l/m 10,1 km/h (2 Bft) SO 135 0 min 0 W/m 14,8 C 18,8 C 10,1 km/h (2 Bft)
26.07.2011 15:45 20,0 C 71 % 1011,5 hPa 0,0 l/m 13,5 km/h (3 Bft) SO 140 0 min 0 W/m 14,6 C 17,6 C 13,5 km/h (3 Bft)
26.07.2011 15:50 19,8 C 71 % 1011,5 hPa 0,0 l/m 10,8 km/h (2 Bft) O-SO 115 0 min 0 W/m 14,4 C 18,2 C 10,8 km/h (2 Bft)
26.07.2011 15:56 19,6 C 71 % 1011,5 hPa 0,0 l/m 11,0 km/h (2 Bft) O-SO 120 0 min 0 W/m 14,2 C 17,9 C 11,0 km/h (2 Bft)
26.07.2011 16:00 19,6 C 71 % 1012,5 hPa 0,0 l/m 10,4 km/h (2 Bft) SO 130 0 min 0 W/m 14,2 C 18,1 C 10,4 km/h (2 Bft)
26.07.2011 16:05 19,4 C 71 % 1012,5 hPa 0,0 l/m 12,0 km/h (2 Bft) SO 125 0 min 0 W/m 14,0 C 17,3 C 12,0 km/h (2 Bft)
26.07.2011 16:10 19,4 C 71 % 1011,5 hPa 0,0 l/m 7,6 km/h (2 Bft) SO 145 0 min 0 W/m 14,0 C 18,9 C 7,6 km/h (2 Bft)
26.07.2011 16:16 19,4 C 72 % 1011,5 hPa 0,0 l/m 6,7 km/h (2 Bft) SO 140 0 min 0 W/m 14,2 C 19,3 C 6,7 km/h (2 Bft)
26.07.2011 16:20 19,3 C 72 % 1012,5 hPa 0,0 l/m 8,9 km/h (2 Bft) SO 130 0 min 0 W/m 14,1 C 18,3 C 8,9 km/h (2 Bft)
26.07.2011 16:25 19,2 C 72 % 1012,5 hPa 0,0 l/m 6,1 km/h (2 Bft) O-SO 110 0 min 0 W/m 14,0 C 19,2 C 6,1 km/h (2 Bft)
26.07.2011 16:30 19,3 C 72 % 1011,5 hPa 0,0 l/m 0,7 km/h (0 Bft) SO 135 0 min 0 W/m 14,1 C 19,3 C 0,7 km/h (0 Bft)
26.07.2011 16:35 19,3 C 72 % 1012,5 hPa 0,0 l/m 5,2 km/h (1 Bft) SO 135 0 min 0 W/m 14,1 C 19,3 C 5,2 km/h (1 Bft)
26.07.2011 16:40 19,4 C 72 % 1012,5 hPa 0,0 l/m 1,7 km/h (1 Bft) O-SO 115 0 min 0 W/m 14,2 C 19,4 C 1,7 km/h (1 Bft)
26.07.2011 16:46 19,4 C 73 % 1012,5 hPa 0,0 l/m 10,3 km/h (2 Bft) O-SO 115 0 min 0 W/m 14,4 C 17,9 C 10,3 km/h (2 Bft)
26.07.2011 16:51 19,4 C 73 % 1012,5 hPa 0,0 l/m 1,7 km/h (1 Bft) O-SO 120 0 min 0 W/m 14,4 C 19,4 C 1,7 km/h (1 Bft)
26.07.2011 16:55 19,4 C 73 % 1012,5 hPa 0,0 l/m 6,4 km/h (2 Bft) O-SO 110 0 min 0 W/m 14,4 C 19,4 C 6,4 km/h (2 Bft)
26.07.2011 17:00 19,4 C 73 % 1012,5 hPa 0,0 l/m 7,6 km/h (2 Bft) O-SO 110 0 min 0 W/m 14,4 C 18,9 C 7,6 km/h (2 Bft)
26.07.2011 17:06 19,3 C 73 % 1012,5 hPa 0,0 l/m 7,0 km/h (2 Bft) SO 140 0 min 0 W/m 14,3 C 19,0 C 7,0 km/h (2 Bft)
26.07.2011 17:10 19,3 C 73 % 1012,5 hPa 0,0 l/m 5,0 km/h (1 Bft) SO 125 0 min 0 W/m 14,3 C 19,3 C 5,0 km/h (1 Bft)
26.07.2011 17:15 19,3 C 73 % 1012,5 hPa 0,0 l/m 9,2 km/h (2 Bft) O 95 0 min 0 W/m 14,3 C 18,2 C 9,2 km/h (2 Bft)
26.07.2011 17:20 19,4 C 73 % 1012,5 hPa 0,0 l/m 9,0 km/h (2 Bft) O-SO 110 0 min 0 W/m 14,4 C 18,3 C 9,0 km/h (2 Bft)
26.07.2011 17:25 19,3 C 73 % 1012,5 hPa 0,0 l/m 7,0 km/h (2 Bft) O 100 0 min 0 W/m 14,3 C 19,0 C 7,0 km/h (2 Bft)
26.07.2011 17:30 19,3 C 74 % 1012,5 hPa 0,0 l/m 3,9 km/h (1 Bft) O 100 0 min 0 W/m 14,5 C 19,3 C 3,9 km/h (1 Bft)
26.07.2011 17:36 19,3 C 74 % 1012,5 hPa 0,0 l/m 3,9 km/h (1 Bft) O 100 0 min 0 W/m 14,5 C 19,3 C 3,9 km/h (1 Bft)
26.07.2011 17:41 19,2 C 74 % 1012,5 hPa 0,0 l/m 6,8 km/h (2 Bft) O-SO 120 0 min 0 W/m 14,4 C 19,0 C 6,8 km/h (2 Bft)
26.07.2011 17:45 19,3 C 74 % 1012,5 hPa 0,0 l/m 6,3 km/h (2 Bft) O-SO 120 0 min 0 W/m 14,5 C 19,3 C 6,3 km/h (2 Bft)
26.07.2011 17:50 19,2 C 75 % 1012,5 hPa 0,0 l/m 7,4 km/h (2 Bft) SO 125 0 min 0 W/m 14,7 C 18,8 C 7,4 km/h (2 Bft)
26.07.2011 17:55 19,3 C 75 % 1012,5 hPa 0,0 l/m 7,1 km/h (2 Bft) SO 145 0 min 0 W/m 14,8 C 19,0 C 7,1 km/h (2 Bft)
26.07.2011 18:00 19,2 C 75 % 1012,5 hPa 0,0 l/m 6,0 km/h (2 Bft) SO 125 0 min 0 W/m 14,7 C 19,2 C 6,0 km/h (2 Bft)
26.07.2011 18:05 19,2 C 75 % 1012,5 hPa 0,0 l/m 8,9 km/h (2 Bft) O-SO 105 0 min 0 W/m 14,7 C 18,2 C 8,9 km/h (2 Bft)
26.07.2011 18:10 19,2 C 75 % 1012,5 hPa 0,0 l/m 4,5 km/h (1 Bft) SO 125 0 min 0 W/m 14,7 C 19,2 C 4,5 km/h (1 Bft)
26.07.2011 18:15 19,2 C 75 % 1012,5 hPa 0,0 l/m 1,5 km/h (1 Bft) O 90 0 min 0 W/m 14,7 C 19,2 C 1,5 km/h (1 Bft)
26.07.2011 18:20 19,2 C 76 % 1012,5 hPa 0,0 l/m 5,8 km/h (2 Bft) O-SO 115 0 min 0 W/m 14,9 C 19,2 C 5,8 km/h (2 Bft)
26.07.2011 18:25 19,2 C 76 % 1012,5 hPa 0,0 l/m 0,7 km/h (0 Bft) SO 130 0 min 0 W/m 14,9 C 19,2 C 0,7 km/h (0 Bft)
26.07.2011 18:31 19,2 C 76 % 1012,5 hPa 0,0 l/m 0,1 km/h (0 Bft) SO 125 0 min 0 W/m 14,9 C 19,2 C 0,1 km/h (0 Bft)
26.07.2011 18:35 19,1 C 76 % 1012,5 hPa 0,0 l/m 5,6 km/h (2 Bft) O 90 0 min 0 W/m 14,8 C 19,1 C 5,6 km/h (2 Bft)
26.07.2011 18:40 19,1 C 76 % 1012,5 hPa 0,0 l/m 4,4 km/h (1 Bft) O 95 0 min 0 W/m 14,8 C 19,1 C 4,4 km/h (1 Bft)
26.07.2011 18:45 19,0 C 77 % 1012,5 hPa 0,0 l/m 5,2 km/h (1 Bft) O-SO 115 0 min 0 W/m 14,9 C 19,0 C 5,2 km/h (1 Bft)
26.07.2011 18:50 19,0 C 77 % 1012,5 hPa 0,0 l/m 5,4 km/h (2 Bft) O-SO 120 0 min 0 W/m 14,9 C 19,0 C 5,4 km/h (2 Bft)
26.07.2011 18:55 19,0 C 77 % 1012,5 hPa 0,0 l/m 3,7 km/h (1 Bft) O-SO 110 0 min 0 W/m 14,9 C 19,0 C 3,7 km/h (1 Bft)
26.07.2011 19:01 18,9 C 77 % 1012,5 hPa 0,0 l/m 8,7 km/h (2 Bft) O-SO 105 0 min 0 W/m 14,8 C 17,9 C 8,7 km/h (2 Bft)
26.07.2011 19:05 18,9 C 77 % 1012,5 hPa 0,0 l/m 6,6 km/h (2 Bft) O-SO 115 0 min 0 W/m 14,8 C 18,8 C 6,6 km/h (2 Bft)
26.07.2011 19:10 18,9 C 77 % 1012,5 hPa 0,0 l/m 7,9 km/h (2 Bft) O-SO 105 0 min 0 W/m 14,8 C 18,2 C 7,9 km/h (2 Bft)
26.07.2011 19:16 18,9 C 77 % 1012,5 hPa 0,0 l/m 5,1 km/h (1 Bft) O 90 0 min 0 W/m 14,8 C 18,9 C 5,1 km/h (1 Bft)
26.07.2011 19:20 18,9 C 77 % 1012,5 hPa 0,0 l/m 3,8 km/h (1 Bft) O-SO 110 0 min 0 W/m 14,8 C 18,9 C 3,8 km/h (1 Bft)
26.07.2011 19:25 18,8 C 78 % 1012,5 hPa 0,0 l/m 7,5 km/h (2 Bft) O-SO 105 0 min 0 W/m 14,9 C 18,3 C 7,5 km/h (2 Bft)
26.07.2011 19:30 18,8 C 78 % 1012,5 hPa 0,0 l/m 7,1 km/h (2 Bft) O 95 0 min 0 W/m 14,9 C 18,5 C 7,1 km/h (2 Bft)
26.07.2011 19:35 18,8 C 78 % 1012,5 hPa 0,0 l/m 0,9 km/h (0 Bft) O-SO 105 0 min 0 W/m 14,9 C 18,8 C 0,9 km/h (0 Bft)
26.07.2011 19:40 18,8 C 78 % 1012,5 hPa 0,0 l/m 0,9 km/h (0 Bft) O-SO 105 0 min 0 W/m 14,9 C 18,8 C 0,9 km/h (0 Bft)
26.07.2011 19:46 18,8 C 78 % 1012,5 hPa 0,0 l/m 0,4 km/h (0 Bft) O-SO 105 0 min 0 W/m 14,9 C 18,8 C 0,4 km/h (0 Bft)
26.07.2011 19:50 18,8 C 78 % 1012,5 hPa 0,0 l/m 0,4 km/h (0 Bft) O 95 0 min 0 W/m 14,9 C 18,8 C 0,4 km/h (0 Bft)
26.07.2011 19:55 18,7 C 78 % 1012,5 hPa 0,0 l/m 0,7 km/h (0 Bft) SO 135 0 min 0 W/m 14,8 C 18,7 C 0,7 km/h (0 Bft)
26.07.2011 20:00 18,7 C 78 % 1012,5 hPa 0,0 l/m 0,0 km/h (0 Bft) O-SO 115 0 min 0 W/m 14,8 C 18,7 C 0,0 km/h (0 Bft)
26.07.2011 20:06 18,7 C 78 % 1012,5 hPa 0,0 l/m 0,9 km/h (0 Bft) O-SO 105 0 min 0 W/m 14,8 C 18,7 C 0,9 km/h (0 Bft)
26.07.2011 20:10 18,7 C 78 % 1012,5 hPa 0,0 l/m 2,9 km/h (1 Bft) O-SO 115 0 min 0 W/m 14,8 C 18,7 C 2,9 km/h (1 Bft)
26.07.2011 20:15 18,6 C 79 % 1012,5 hPa 0,0 l/m 0,4 km/h (0 Bft) O-SO 115 0 min 0 W/m 14,9 C 18,6 C 0,4 km/h (0 Bft)
26.07.2011 20:20 18,6 C 79 % 1013,5 hPa 0,0 l/m 0,7 km/h (0 Bft) O-SO 120 0 min 0 W/m 14,9 C 18,6 C 0,7 km/h (0 Bft)
26.07.2011 20:25 18,5 C 79 % 1013,5 hPa 0,0 l/m 0,0 km/h (0 Bft) O-SO 120 0 min 0 W/m 14,8 C 18,5 C 0,0 km/h (0 Bft)
26.07.2011 20:31 18,5 C 78 % 1013,5 hPa 0,0 l/m 0,0 km/h (0 Bft) O-SO 120 0 min 0 W/m 14,6 C 18,5 C 0,0 km/h (0 Bft)
26.07.2011 20:35 18,4 C 78 % 1013,5 hPa 0,0 l/m 0,0 km/h (0 Bft) O-SO 115 0 min 0 W/m 14,5 C 18,4 C 0,0 km/h (0 Bft)
26.07.2011 20:40 18,4 C 79 % 1013,5 hPa 0,0 l/m 0,9 km/h (0 Bft) O-SO 115 0 min 0 W/m 14,7 C 18,4 C 0,9 km/h (0 Bft)
26.07.2011 20:45 18,4 C 79 % 1013,5 hPa 0,0 l/m 0,0 km/h (0 Bft) O-SO 115 0 min 0 W/m 14,7 C 18,4 C 0,0 km/h (0 Bft)
26.07.2011 20:50 18,4 C 79 % 1013,5 hPa 0,0 l/m 0,1 km/h (0 Bft) O-SO 115 0 min 0 W/m 14,7 C 18,4 C 0,1 km/h (0 Bft)
26.07.2011 20:55 18,3 C 79 % 1013,5 hPa 0,0 l/m 0,0 km/h (0 Bft) O-SO 115 0 min 0 W/m 14,6 C 18,3 C 0,0 km/h (0 Bft)
26.07.2011 21:01 18,2 C 79 % 1013,5 hPa 0,0 l/m 0,0 km/h (0 Bft) O-SO 115 0 min 0 W/m 14,5 C 18,2 C 0,0 km/h (0 Bft)
26.07.2011 21:05 18,0 C 79 % 1013,5 hPa 0,0 l/m 0,0 km/h (0 Bft) O-SO 115 0 min 0 W/m 14,3 C 18,0 C 0,0 km/h (0 Bft)
26.07.2011 21:10 18,0 C 79 % 1013,5 hPa 0,0 l/m 0,0 km/h (0 Bft) O-SO 115 0 min 0 W/m 14,3 C 18,0 C 0,0 km/h (0 Bft)
26.07.2011 21:16 17,9 C 80 % 1013,5 hPa 0,0 l/m 0,0 km/h (0 Bft) O-SO 115 0 min 0 W/m 14,4 C 17,9 C 0,0 km/h (0 Bft)
26.07.2011 21:21 17,8 C 80 % 1013,5 hPa 0,0 l/m 0,8 km/h (0 Bft) O 80 0 min 0 W/m 14,3 C 17,8 C 0,8 km/h (0 Bft)
26.07.2011 21:25 17,8 C 80 % 1013,5 hPa 0,0 l/m 0,0 km/h (0 Bft) NO 45 0 min 0 W/m 14,3 C 17,8 C 0,0 km/h (0 Bft)
26.07.2011 21:30 17,7 C 81 % 1013,5 hPa 0,0 l/m 0,1 km/h (0 Bft) NO 40 0 min 0 W/m 14,4 C 17,7 C 0,1 km/h (0 Bft)
26.07.2011 21:35 17,7 C 81 % 1013,5 hPa 0,0 l/m 0,2 km/h (0 Bft) N-NO 30 0 min 0 W/m 14,4 C 17,7 C 0,2 km/h (0 Bft)
26.07.2011 21:40 17,7 C 81 % 1013,5 hPa 0,0 l/m 0,1 km/h (0 Bft) N-NO 25 0 min 0 W/m 14,4 C 17,7 C 0,1 km/h (0 Bft)
26.07.2011 21:46 17,7 C 82 % 1013,5 hPa 0,0 l/m 0,1 km/h (0 Bft) N-NO 25 0 min 0 W/m 14,6 C 17,7 C 0,1 km/h (0 Bft)
26.07.2011 21:50 17,6 C 82 % 1013,5 hPa 0,0 l/m 0,7 km/h (0 Bft) N-NO 30 0 min 0 W/m 14,5 C 17,6 C 0,7 km/h (0 Bft)
26.07.2011 21:55 17,7 C 82 % 1013,5 hPa 0,0 l/m 0,3 km/h (0 Bft) NO 50 0 min 0 W/m 14,6 C 17,7 C 0,3 km/h (0 Bft)
26.07.2011 22:00 17,7 C 82 % 1013,5 hPa 0,0 l/m 4,4 km/h (1 Bft) NO 55 0 min 0 W/m 14,6 C 17,7 C 4,4 km/h (1 Bft)
26.07.2011 22:06 17,7 C 82 % 1013,5 hPa 0,0 l/m 0,6 km/h (0 Bft) O-NO 60 0 min 0 W/m 14,6 C 17,7 C 0,6 km/h (0 Bft)
26.07.2011 22:10 17,7 C 82 % 1013,5 hPa 0,0 l/m 0,7 km/h (0 Bft) O-NO 75 0 min 0 W/m 14,6 C 17,7 C 0,7 km/h (0 Bft)
26.07.2011 22:15 17,7 C 82 % 1013,5 hPa 0,0 l/m 5,9 km/h (2 Bft) O 100 0 min 0 W/m 14,6 C 17,7 C 5,9 km/h (2 Bft)
26.07.2011 22:20 17,8 C 82 % 1014,5 hPa 0,0 l/m 1,6 km/h (1 Bft) O 95 0 min 0 W/m 14,7 C 17,8 C 1,6 km/h (1 Bft)
26.07.2011 22:25 17,7 C 82 % 1014,5 hPa 0,0 l/m 5,7 km/h (2 Bft) NO 35 0 min 0 W/m 14,6 C 17,7 C 5,7 km/h (2 Bft)
26.07.2011 22:31 17,7 C 82 % 1014,5 hPa 0,0 l/m 0,3 km/h (0 Bft) NO 55 0 min 0 W/m 14,6 C 17,7 C 0,3 km/h (0 Bft)
26.07.2011 22:35 17,7 C 82 % 1014,5 hPa 0,0 l/m 1,1 km/h (1 Bft) O-NO 70 0 min 0 W/m 14,6 C 17,7 C 1,1 km/h (1 Bft)
26.07.2011 22:40 17,7 C 83 % 1014,5 hPa 0,0 l/m 0,4 km/h (0 Bft) O 85 0 min 0 W/m 14,8 C 17,7 C 0,4 km/h (0 Bft)
26.07.2011 22:45 17,7 C 83 % 1014,5 hPa 0,0 l/m 5,4 km/h (2 Bft) SO 140 0 min 0 W/m 14,8 C 17,7 C 5,4 km/h (2 Bft)
26.07.2011 22:50 17,6 C 83 % 1014,5 hPa 0,0 l/m 2,0 km/h (1 Bft) SO 135 0 min 0 W/m 14,7 C 17,6 C 2,0 km/h (1 Bft)
26.07.2011 22:55 17,6 C 84 % 1014,5 hPa 0,0 l/m 6,5 km/h (2 Bft) SO 125 0 min 0 W/m 14,9 C 17,6 C 6,5 km/h (2 Bft)
26.07.2011 23:01 17,6 C 84 % 1014,5 hPa 0,0 l/m 9,5 km/h (2 Bft) O 95 0 min 0 W/m 14,9 C 16,2 C 9,5 km/h (2 Bft)
26.07.2011 23:05 17,6 C 84 % 1014,5 hPa 0,0 l/m 9,0 km/h (2 Bft) O-NO 75 0 min 0 W/m 14,9 C 16,4 C 9,0 km/h (2 Bft)
26.07.2011 23:10 17,6 C 84 % 1014,5 hPa 0,0 l/m 10,6 km/h (2 Bft) O-SO 105 0 min 0 W/m 14,9 C 15,8 C 10,6 km/h (2 Bft)
26.07.2011 23:15 17,6 C 83 % 1014,5 hPa 0,0 l/m 13,2 km/h (3 Bft) SO 125 0 min 0 W/m 14,7 C 14,9 C 13,2 km/h (3 Bft)
26.07.2011 23:21 17,6 C 83 % 1014,5 hPa 0,0 l/m 10,8 km/h (2 Bft) O-SO 120 0 min 0 W/m 14,7 C 15,7 C 10,8 km/h (2 Bft)
26.07.2011 23:25 17,6 C 83 % 1014,5 hPa 0,0 l/m 10,0 km/h (2 Bft) O-SO 105 0 min 0 W/m 14,7 C 16,0 C 10,0 km/h (2 Bft)
26.07.2011 23:30 17,6 C 83 % 1014,5 hPa 0,0 l/m 10,0 km/h (2 Bft) SO 130 0 min 0 W/m 14,7 C 16,0 C 10,0 km/h (2 Bft)
26.07.2011 23:35 17,6 C 83 % 1014,5 hPa 0,0 l/m 7,2 km/h (2 Bft) S-SO 150 0 min 0 W/m 14,7 C 17,2 C 7,2 km/h (2 Bft)
26.07.2011 23:40 17,6 C 83 % 1014,5 hPa 0,0 l/m 13,0 km/h (3 Bft) O-SO 120 0 min 0 W/m 14,7 C 14,9 C 13,0 km/h (3 Bft)
26.07.2011 23:46 17,6 C 83 % 1014,5 hPa 0,0 l/m 9,4 km/h (2 Bft) O-SO 115 0 min 0 W/m 14,7 C 16,2 C 9,4 km/h (2 Bft)
26.07.2011 23:50 17,5 C 83 % 1014,5 hPa 0,0 l/m 1,3 km/h (1 Bft) SO 145 0 min 0 W/m 14,6 C 17,5 C 1,3 km/h (1 Bft)
26.07.2011 23:55 17,5 C 83 % 1014,5 hPa 0,0 l/m 6,8 km/h (2 Bft) O-SO 120 0 min 0 W/m 14,6 C 17,3 C 6,8 km/h (2 Bft)
_ Min-Zeit 04:56 12:35 00:01 - 04:45 - - - - 00:31 05:10 04:45
Minimum _ 12,9 C 66 % 1008,5 hPa - 0,0 km/h (0 Bft) - - - - 10,6 C 10,0 C 0,0 km/h (0 Bft)
_ Max-Zeit 13:15 06:50 22:20 00:01 13:30 - - 00:01 00:01 13:15 13:15 13:30
Maximum _ 21,9 C 89 % 1014,5 hPa 0,0 l/m 20,5 km/h
O (4 Bft)
- - 0 min 0 W/m 15,7 C 21,0 C 20,5 km/h
O (4 Bft)
Durchschnitt _ 16,9 C 80 % 1010,7 hPa #0,0 l/m 6,6 km/h (2 Bft) SO - #0 min. 0 W/m 13,3 C 16,1 C 6,6 km/h (2 Bft)
copyright by Holger Just